Time;durP1;ratioP1;P1;durP2;ratioP2;P2;SDS_P1;SDS_P2;PMS_P1;PMS_P2;Temp;Humidity;BMP_temperature;BMP_pressure;BME280_temperature;BME280_humidity;BME280_pressure;Samples;Min_cycle;Max_cycle;Signal;HPM_P1;HPM_P2
2021/12/12 00:02:56;;;;;;;;;11.00;9.00;;;;;4.16;75.29;100042.44;5036897;28;45381;-74
2021/12/12 00:05:15;;;;;;;;;12.67;11.00;;;;;4.13;75.37;100039.81;5036111;28;45532;-74
2021/12/12 00:07:41;;;;;;;;;13.67;12.00;;;;;4.10;75.57;100040.69;5036138;28;46241;-74
2021/12/12 00:10:15;;;;;;;;;11.00;9.67;;;;;4.09;75.67;100038.94;5037123;28;45467;-74
2021/12/12 00:12:47;;;;;;;;;12.33;11.67;;;;;4.06;75.78;100044.16;5036627;28;45405;-74
2021/12/12 00:15:15;;;;;;;;;12.00;10.67;;;;;4.03;76.14;100040.66;5035592;28;45553;-74
2021/12/12 00:17:41;;;;;;;;;11.33;9.33;;;;;3.98;76.19;100035.47;5036450;28;45593;-74
2021/12/12 00:20:10;;;;;;;;;10.33;10.00;;;;;3.97;76.07;100041.53;5027674;28;45610;-74
2021/12/12 00:22:36;;;;;;;;;13.00;13.00;;;;;3.94;76.10;100035.44;5036952;28;45428;-74
2021/12/12 00:25:04;;;;;;;;;15.67;11.00;;;;;3.91;76.53;100041.53;5036669;28;45396;-74
2021/12/12 00:27:29;;;;;;;;;14.33;11.00;;;;;3.86;76.26;100040.63;5035667;28;45361;-74
2021/12/12 00:30:02;;;;;;;;;15.00;13.33;;;;;3.82;76.68;100045.00;5036463;28;45290;-74
2021/12/12 00:32:27;;;;;;;;;12.67;11.33;;;;;3.79;76.24;100046.72;5034630;28;45504;-74
2021/12/12 00:35:00;;;;;;;;;21.00;17.33;;;;;3.75;77.08;100050.19;5036932;28;45408;-74
2021/12/12 00:37:27;;;;;;;;;17.00;13.67;;;;;3.69;77.19;100044.94;5036820;28;45452;-74
2021/12/12 00:39:56;;;;;;;;;14.00;12.00;;;;;3.65;77.13;100056.25;5036128;28;45427;-74
2021/12/12 00:42:29;;;;;;;;;23.67;16.33;;;;;3.61;77.48;100065.81;5035878;28;45353;-74
2021/12/12 00:44:58;;;;;;;;;15.00;15.00;;;;;3.59;77.70;100067.53;5036485;28;45373;-74
2021/12/12 00:47:24;;;;;;;;;17.67;16.33;;;;;3.57;77.71;100069.25;5036102;28;46471;-74
2021/12/12 00:49:51;;;;;;;;;19.33;15.67;;;;;3.55;77.64;100062.28;5051948;28;45400;-74
2021/12/12 00:52:19;;;;;;;;;21.33;19.67;;;;;3.55;77.65;100071.00;5036514;28;45373;-74
2021/12/12 00:54:48;;;;;;;;;16.67;15.33;;;;;3.56;77.72;100066.66;5036088;28;45531;-74
2021/12/12 00:57:18;;;;;;;;;17.00;16.00;;;;;3.55;77.99;100071.00;5035627;28;45413;-74
2021/12/12 00:59:45;;;;;;;;;14.67;13.33;;;;;3.55;78.14;100071.00;5036084;28;46319;-74
2021/12/12 01:02:16;;;;;;;;;15.67;13.67;;;;;3.55;78.03;100068.38;5036154;28;45612;-74
2021/12/12 01:04:45;;;;;;;;;18.33;16.67;;;;;3.54;77.76;100065.75;5025008;28;45539;-74
2021/12/12 01:07:19;;;;;;;;;14.67;12.33;;;;;3.53;77.83;100061.41;5036099;28;45652;-74
2021/12/12 01:09:56;;;;;;;;;16.00;12.00;;;;;3.53;77.58;100062.28;5035364;28;45314;-74
2021/12/12 01:12:30;;;;;;;;;16.33;16.33;;;;;3.50;78.44;100057.09;5035250;28;45496;-74
2021/12/12 01:15:04;;;;;;;;;19.00;15.33;;;;;3.48;78.52;100066.63;5034890;28;46216;-74
2021/12/12 01:17:37;;;;;;;;;18.33;12.33;;;;;3.45;78.44;100067.50;5035602;28;45408;-74
2021/12/12 01:20:36;;;;;;;;;14.67;13.67;;;;;3.45;78.34;100072.69;5036020;28;45283;-74
2021/12/12 01:23:08;;;;;;;;;16.33;15.00;;;;;3.43;78.60;100081.38;5030791;28;45507;-74
2021/12/12 01:25:42;;;;;;;;;15.33;11.33;;;;;3.36;78.20;100072.66;5035672;28;45314;-74
2021/12/12 01:28:08;;;;;;;;;18.67;17.67;;;;;3.31;78.44;100079.59;5045107;28;45362;-74
2021/12/12 01:30:33;;;;;;;;;15.00;15.00;;;;;3.26;78.56;100077.81;5034646;28;45598;-74
2021/12/12 01:32:59;;;;;;;;;20.00;14.67;;;;;3.21;78.78;100087.34;5036104;28;45365;-74
2021/12/12 01:35:26;;;;;;;;;15.67;13.00;;;;;3.17;78.84;100088.22;5035667;28;45529;-74
2021/12/12 01:40:47;;;;;;;;;16.67;15.67;;;;;3.12;79.34;100091.66;5035332;28;45234;-74
2021/12/12 01:43:20;;;;;;;;;16.67;13.67;;;;;3.11;79.42;100100.34;5035533;28;45449;-74
2021/12/12 01:45:51;;;;;;;;;14.00;14.00;;;;;3.10;79.20;100105.53;5035740;28;45194;-74
2021/12/12 01:48:19;;;;;;;;;18.00;12.67;;;;;3.10;79.04;100106.41;5035015;28;45593;-74
2021/12/12 01:50:56;;;;;;;;;15.00;11.67;;;;;3.10;78.97;100110.75;5035794;28;45483;-74
2021/12/12 01:53:26;;;;;;;;;20.00;17.33;;;;;3.09;79.46;100115.09;5035628;28;45427;-74
2021/12/12 01:56:11;;;;;;;;;17.67;15.33;;;;;3.08;79.73;100117.69;5035012;28;45370;-74
2021/12/12 01:58:41;;;;;;;;;17.33;14.00;;;;;3.03;79.79;100120.25;5035671;28;45489;-74
2021/12/12 02:01:44;;;;;;;;;14.67;13.00;;;;;2.97;79.50;100117.63;5035140;28;45383;-74
2021/12/12 02:04:15;;;;;;;;;19.33;15.00;;;;;2.96;79.58;100126.31;5035303;28;45380;-74
2021/12/12 02:06:48;;;;;;;;;18.00;11.67;;;;;2.92;80.08;100121.94;5035180;28;45442;-74
2021/12/12 02:09:14;;;;;;;;;13.00;12.67;;;;;2.89;80.05;100127.09;5034218;28;47156;-74
2021/12/12 02:11:46;;;;;;;;;16.67;14.67;;;;;2.85;79.85;100129.69;5035734;28;45411;-75
2021/12/12 02:14:16;;;;;;;;;19.00;15.33;;;;;2.80;80.34;100140.94;5035585;28;45409;-74
2021/12/12 02:16:47;;;;;;;;;6.67;4.33;;;;;2.76;79.92;100139.16;5035441;28;45412;-74
2021/12/12 02:19:15;;;;;;;;;11.33;11.00;;;;;2.78;80.17;100141.78;5035373;28;46431;-74
2021/12/12 02:22:37;;;;;;;;;12.67;12.67;;;;;2.77;80.13;100140.03;5033923;28;45414;-74
2021/12/12 02:35:37;;;;;;;;;15.67;14.33;;;;;2.63;80.90;100147.75;5034931;28;45432;-74
2021/12/12 02:38:05;;;;;;;;;16.00;15.00;;;;;2.64;81.16;100151.22;5035352;28;45201;-74
2021/12/12 02:40:38;;;;;;;;;15.00;11.33;;;;;2.65;81.42;100153.84;5034749;28;45376;-74
2021/12/12 02:43:04;;;;;;;;;14.33;14.00;;;;;2.67;81.15;100159.06;5035035;28;45369;-74
2021/12/12 02:45:32;;;;;;;;;19.33;15.00;;;;;2.67;81.31;100156.47;5033503;28;45346;-74
2021/12/12 02:48:01;;;;;;;;;11.00;11.00;;;;;2.63;80.90;100158.16;5034567;28;45503;-73
2021/12/12 02:50:30;;;;;;;;;15.67;13.00;;;;;2.63;80.98;100152.97;5034907;28;45396;-74
2021/12/12 02:53:14;;;;;;;;;20.00;12.33;;;;;2.63;81.22;100159.91;5034795;28;45272;-74
2021/12/12 02:55:44;;;;;;;;;14.33;14.00;;;;;2.61;81.81;100149.47;5033445;28;45431;-74
2021/12/12 02:58:17;;;;;;;;;10.33;10.00;;;;;2.57;81.42;100155.50;5034779;28;45313;-74
2021/12/12 03:00:51;;;;;;;;;18.67;11.67;;;;;2.57;81.64;100159.84;5025830;28;45715;-74
2021/12/12 03:03:17;;;;;;;;;14.67;14.67;;;;;2.57;81.91;100167.63;5020430;28;45370;-74
2021/12/12 03:05:46;;;;;;;;;15.33;14.33;;;;;2.57;81.92;100160.72;5033671;28;45366;-74
2021/12/12 03:08:12;;;;;;;;;16.33;16.33;;;;;2.60;81.72;100168.53;5033424;28;45575;-74
2021/12/12 03:10:41;;;;;;;;;18.00;15.00;;;;;2.59;82.06;100166.81;5034684;28;46112;-74
2021/12/12 03:13:08;;;;;;;;;17.00;13.67;;;;;2.58;82.41;100165.06;5033285;28;45377;-74
2021/12/12 03:15:38;;;;;;;;;14.33;14.00;;;;;2.57;82.81;100158.09;5033403;28;45393;-74
2021/12/12 03:18:11;;;;;;;;;20.67;14.00;;;;;2.56;82.52;100163.28;5034353;28;45368;-74
2021/12/12 03:20:40;;;;;;;;;10.67;7.00;;;;;2.52;81.54;100171.94;5032682;28;47024;-74
2021/12/12 03:23:15;;;;;;;;;14.00;14.00;;;;;2.47;80.80;100171.91;5034408;28;45441;-74
2021/12/12 03:25:41;;;;;;;;;16.67;12.33;;;;;2.43;80.66;100172.72;5034446;28;45481;-74
2021/12/12 03:28:11;;;;;;;;;14.33;14.00;;;;;2.39;80.67;100166.63;5049373;28;45524;-74
2021/12/12 03:30:38;;;;;;;;;14.33;13.67;;;;;2.38;80.42;100170.06;5033844;28;46314;-74
2021/12/12 03:33:04;;;;;;;;;18.00;16.00;;;;;2.38;81.23;100175.28;5034160;28;45489;-74
2021/12/12 03:35:30;;;;;;;;;17.00;15.67;;;;;2.34;81.66;100163.13;5027812;28;45352;-74
2021/12/12 03:37:56;;;;;;;;;16.00;14.00;;;;;2.32;81.78;100163.97;5014515;28;45467;-74
2021/12/12 03:40:27;;;;;;;;;21.33;16.00;;;;;2.30;81.85;100176.94;5014311;28;46261;-74
2021/12/12 03:42:56;;;;;;;;;13.00;13.00;;;;;2.26;82.36;100175.16;4998154;28;45384;-74
2021/12/12 03:45:22;;;;;;;;;5.33;5.33;;;;;2.23;82.23;100177.72;5017705;28;45276;-74
2021/12/12 03:47:58;;;;;;;;;14.33;13.33;;;;;2.22;82.46;100177.72;5017312;28;45573;-74
2021/12/12 03:50:28;;;;;;;;;14.00;12.33;;;;;2.22;82.16;100189.00;5004817;28;46444;-74
2021/12/12 03:52:55;;;;;;;;;11.00;10.00;;;;;2.22;82.59;100189.00;5018019;28;45430;-74
2021/12/12 03:55:22;;;;;;;;;15.33;11.67;;;;;2.22;82.69;100190.72;5017846;28;45402;-74
2021/12/12 03:57:48;;;;;;;;;19.33;17.00;;;;;2.19;82.77;100186.34;5017503;28;45457;-74
2021/12/12 04:00:45;;;;;;;;;22.00;18.00;;;;;2.15;82.93;100182.00;4999587;28;46787;-74
2021/12/12 04:03:14;;;;;;;;;18.00;18.00;;;;;2.10;82.96;100178.47;4976628;28;45342;-74
2021/12/12 04:05:44;;;;;;;;;22.67;21.33;;;;;2.09;83.13;100184.53;5017863;28;45288;-74
2021/12/12 04:08:10;;;;;;;;;22.67;17.33;;;;;2.09;83.48;100192.31;4999606;28;45447;-74
2021/12/12 04:10:35;;;;;;;;;23.33;16.33;;;;;2.09;83.51;100190.59;5017336;28;45467;-74
2021/12/12 04:13:01;;;;;;;;;18.00;17.00;;;;;2.10;83.29;100189.75;4999327;28;45421;-74
2021/12/12 04:15:26;;;;;;;;;26.33;20.00;;;;;2.12;83.48;100194.97;5017479;28;45452;-74
2021/12/12 04:17:52;;;;;;;;;23.33;18.67;;;;;2.15;83.53;100196.72;5017083;28;45390;-74
2021/12/12 04:20:30;;;;;;;;;24.67;19.33;;;;;2.16;83.60;100198.47;5017265;28;46517;-74
2021/12/12 04:22:56;;;;;;;;;21.33;17.00;;;;;2.16;83.47;100198.47;5004867;28;45339;-74
2021/12/12 04:25:23;;;;;;;;;19.33;17.33;;;;;2.13;83.61;100203.63;5017403;28;45261;-74
2021/12/12 04:27:49;;;;;;;;;24.33;20.67;;;;;2.08;83.74;100201.84;5017383;28;45415;-74
2021/12/12 04:30:16;;;;;;;;;28.00;20.33;;;;;2.06;83.37;100202.69;5021134;28;46148;-74
2021/12/12 04:32:44;;;;;;;;;21.67;20.00;;;;;2.04;83.89;100210.47;5016957;28;45415;-74
2021/12/12 04:35:21;;;;;;;;;27.67;23.67;;;;;2.03;83.88;100202.63;5016807;28;45317;-74
2021/12/12 04:37:47;;;;;;;;;18.33;17.00;;;;;2.02;83.92;100198.28;5016914;28;45222;-74
2021/12/12 04:40:18;;;;;;;;;21.67;15.33;;;;;2.02;83.99;100201.78;5016843;28;46621;-74
2021/12/12 04:42:46;;;;;;;;;18.00;17.00;;;;;2.01;84.24;100189.63;5016945;28;45425;-74
2021/12/12 04:46:02;;;;;;;;;21.67;19.33;;;;;1.99;84.25;100195.69;4998501;28;45395;-74
2021/12/12 04:51:33;;;;;;;;;18.33;18.33;;;;;2.01;83.83;100196.59;4916663;28;45470;-74
2021/12/12 04:54:27;;;;;;;;;24.33;21.33;;;;;2.02;84.04;100186.16;4998017;28;45309;-74
2021/12/12 04:56:59;;;;;;;;;23.00;19.33;;;;;2.01;84.50;100188.78;5016895;28;45438;-74
2021/12/12 04:59:37;;;;;;;;;18.00;14.33;;;;;1.97;84.43;100192.19;4998503;28;45822;-74
2021/12/12 05:02:28;;;;;;;;;23.00;20.33;;;;;1.92;84.79;100201.66;5016369;28;45512;-74
2021/12/12 05:05:12;;;;;;;;;21.33;19.67;;;;;1.92;84.83;100204.25;4969954;28;45650;-74
2021/12/12 05:07:47;;;;;;;;;23.00;18.67;;;;;1.90;84.62;100206.84;5016516;28;45520;-74
2021/12/12 05:10:31;;;;;;;;;19.33;19.33;;;;;1.92;84.51;100201.66;5016465;28;45569;-74
2021/12/12 05:13:13;;;;;;;;;18.33;14.00;;;;;1.94;84.23;100207.75;5015874;28;46477;-74
2021/12/12 05:15:43;;;;;;;;;17.67;16.00;;;;;1.94;84.25;100205.16;5015892;28;45524;-74
2021/12/12 05:18:31;;;;;;;;;23.33;18.00;;;;;1.96;84.12;100203.44;5015998;28;45394;-74
2021/12/12 05:21:03;;;;;;;;;17.33;17.33;;;;;1.97;84.19;100218.19;5015930;28;45559;-74
2021/12/12 05:23:31;;;;;;;;;20.67;19.00;;;;;1.98;83.72;100219.94;5016319;28;46451;-74
2021/12/12 05:26:05;;;;;;;;;27.00;21.67;;;;;1.98;83.85;100217.34;5015669;28;45400;-74
2021/12/12 05:28:38;;;;;;;;;21.00;21.00;;;;;1.98;83.54;100225.16;5016188;28;45485;-74
2021/12/12 05:31:08;;;;;;;;;25.67;23.00;;;;;1.96;83.59;100234.66;5020078;28;45235;-74
2021/12/12 05:33:34;;;;;;;;;24.33;21.00;;;;;1.95;83.31;100230.31;5015856;28;46012;-74
2021/12/12 05:36:01;;;;;;;;;22.00;18.00;;;;;1.95;83.02;100238.09;5015904;28;45284;-74
2021/12/12 05:38:27;;;;;;;;;21.00;19.67;;;;;1.94;83.04;100239.81;5015992;28;45443;-74
2021/12/12 05:40:54;;;;;;;;;25.33;20.67;;;;;1.95;82.92;100244.19;5016016;28;45318;-74
2021/12/12 05:43:20;;;;;;;;;26.67;21.00;;;;;1.94;83.31;100241.56;5015619;28;45565;-74
2021/12/12 05:45:47;;;;;;;;;19.67;17.67;;;;;1.93;83.27;100245.00;5015772;28;45183;-74
2021/12/12 05:48:14;;;;;;;;;22.33;18.67;;;;;1.92;83.42;100245.84;5015653;28;45528;-74
2021/12/12 05:50:41;;;;;;;;;20.00;15.67;;;;;1.88;83.64;100251.88;5015754;28;45551;-74
2021/12/12 05:53:08;;;;;;;;;23.33;20.00;;;;;1.84;84.03;100253.56;5015667;28;46337;-74
2021/12/12 05:55:35;;;;;;;;;25.33;20.00;;;;;1.77;83.66;100256.94;5015763;28;45369;-74
2021/12/12 05:58:05;;;;;;;;;21.67;18.33;;;;;1.74;83.59;100256.88;5016105;28;45464;-74
2021/12/12 06:00:36;;;;;;;;;23.67;22.00;;;;;1.74;84.10;100269.88;5015733;28;45445;-74
2021/12/12 06:03:07;;;;;;;;;26.67;23.00;;;;;1.72;83.89;100263.78;4997206;28;47763;-74
2021/12/12 06:05:34;;;;;;;;;25.67;22.33;;;;;1.71;84.51;100268.13;4996809;28;45357;-74
2021/12/12 06:08:00;;;;;;;;;19.67;18.33;;;;;1.72;84.41;100279.38;5015751;28;45170;-74
2021/12/12 06:10:26;;;;;;;;;22.00;19.33;;;;;1.72;84.62;100287.19;5015413;28;45220;-74
2021/12/12 06:12:53;;;;;;;;;25.00;18.67;;;;;1.71;84.17;100281.09;5015386;28;46080;-74
2021/12/12 06:15:20;;;;;;;;;28.67;18.00;;;;;1.73;83.91;100284.59;4997599;28;46153;-74
2021/12/12 06:17:47;;;;;;;;;21.67;19.33;;;;;1.74;83.82;100280.28;5015021;28;45453;-74
2021/12/12 06:20:14;;;;;;;;;23.67;21.67;;;;;1.77;83.83;100287.25;5015144;28;45506;-74
2021/12/12 06:22:40;;;;;;;;;23.33;18.00;;;;;1.78;83.51;100286.41;4996489;28;45651;-74
2021/12/12 06:25:07;;;;;;;;;25.33;20.67;;;;;1.80;83.55;100292.50;5015154;28;45326;-74
2021/12/12 06:27:34;;;;;;;;;17.67;16.00;;;;;1.80;83.56;100293.38;5015455;28;45435;-74
2021/12/12 06:30:00;;;;;;;;;26.67;18.00;;;;;1.81;83.30;100292.53;5018246;28;45378;-74
2021/12/12 06:32:25;;;;;;;;;24.00;18.00;;;;;1.79;83.63;100294.22;5016167;28;45621;-74
2021/12/12 06:34:56;;;;;;;;;17.33;17.00;;;;;1.73;83.94;100291.53;5015264;28;45359;-74
2021/12/12 06:37:22;;;;;;;;;21.00;18.00;;;;;1.68;83.74;100295.78;5015119;28;45288;-74
2021/12/12 06:39:49;;;;;;;;;27.00;20.00;;;;;1.60;84.30;100302.59;5014989;28;45215;-74
2021/12/12 06:42:16;;;;;;;;;16.67;14.67;;;;;1.52;84.37;100315.47;5014738;28;45681;-74
2021/12/12 06:44:43;;;;;;;;;17.67;17.67;;;;;1.46;84.57;100311.94;5014955;28;45526;-74
2021/12/12 06:47:12;;;;;;;;;24.33;17.67;;;;;1.42;84.50;100311.00;5014013;28;45410;-74
2021/12/12 06:49:38;;;;;;;;;23.67;19.00;;;;;1.43;84.36;100315.34;5015082;28;45460;-74
2021/12/12 06:52:07;;;;;;;;;24.00;20.33;;;;;1.44;84.42;100314.50;5014487;28;45414;-74
2021/12/12 06:54:33;;;;;;;;;27.67;21.00;;;;;1.46;84.55;100318.00;4996776;28;45376;-74
2021/12/12 06:57:02;;;;;;;;;19.33;15.33;;;;;1.48;85.30;100325.81;5014877;28;45343;-74
2021/12/12 06:59:32;;;;;;;;;25.33;22.33;;;;;1.50;85.12;100324.13;5014292;28;45564;-74
2021/12/12 07:01:58;;;;;;;;;26.00;23.33;;;;;1.53;85.38;100330.22;5014090;28;45253;-74
2021/12/12 07:04:27;;;;;;;;;19.00;17.33;;;;;1.56;84.97;100324.19;5014385;28;45407;-74
2021/12/12 07:06:57;;;;;;;;;22.33;20.67;;;;;1.58;84.58;100327.69;5014744;28;45407;-74
2021/12/12 07:09:25;;;;;;;;;20.67;20.67;;;;;1.60;84.16;100328.59;5014281;28;45517;-74
2021/12/12 07:11:53;;;;;;;;;26.00;25.67;;;;;1.61;84.31;100330.34;5014182;28;46041;-74
2021/12/12 07:14:19;;;;;;;;;18.33;16.67;;;;;1.61;83.99;100333.81;5014532;28;45445;-74
2021/12/12 07:16:45;;;;;;;;;24.67;20.00;;;;;1.66;84.06;100339.97;5015606;28;45280;-74
2021/12/12 07:19:15;;;;;;;;;21.33;20.00;;;;;1.68;83.29;100350.38;5015744;28;45465;-74
2021/12/12 07:21:42;;;;;;;;;20.00;17.67;;;;;1.70;83.06;100346.94;5016777;28;45319;-74
2021/12/12 07:24:09;;;;;;;;;21.67;19.00;;;;;1.72;82.19;100359.97;5017581;28;45346;-74
2021/12/12 07:26:35;;;;;;;;;21.67;19.67;;;;;1.75;82.59;100362.63;4999946;28;45427;-74
2021/12/12 07:29:02;;;;;;;;;18.67;15.67;;;;;1.76;82.23;100364.38;5017674;28;45502;-74
2021/12/12 07:31:34;;;;;;;;;24.67;18.00;;;;;1.79;82.49;100371.34;5021986;28;45673;-74
2021/12/12 07:34:03;;;;;;;;;20.00;19.67;;;;;1.81;82.44;100380.03;5017190;28;45413;-74
2021/12/12 07:36:32;;;;;;;;;26.33;19.33;;;;;1.85;82.09;100381.81;5017177;28;45320;-74
2021/12/12 07:39:03;;;;;;;;;18.00;17.33;;;;;1.92;82.14;100388.88;5016215;28;45450;-76
2021/12/12 07:41:31;;;;;;;;;20.33;19.33;;;;;2.04;82.06;100402.91;5017726;28;45292;-76
2021/12/12 07:43:59;;;;;;;;;21.67;19.67;;;;;2.13;81.79;100402.19;5017512;28;45363;-76
2021/12/12 07:46:25;;;;;;;;;16.67;15.00;;;;;2.13;81.33;100403.91;5017039;28;45460;-76
2021/12/12 07:48:54;;;;;;;;;13.33;13.33;;;;;2.09;81.14;100408.19;4999830;28;45381;-76
2021/12/12 07:51:22;;;;;;;;;21.33;19.00;;;;;2.06;81.53;100408.16;5017349;28;45410;-75
2021/12/12 07:53:52;;;;;;;;;26.00;22.00;;;;;2.12;81.38;100413.44;5017678;28;45327;-75
2021/12/12 07:56:19;;;;;;;;;20.67;18.33;;;;;2.18;81.61;100415.28;5013728;28;45418;-75
2021/12/12 07:58:45;;;;;;;;;22.67;18.33;;;;;2.22;81.13;100420.53;5016977;28;45374;-74
2021/12/12 08:01:13;;;;;;;;;18.33;18.33;;;;;2.27;81.64;100424.06;5015767;28;45359;-74
2021/12/12 08:03:42;;;;;;;;;30.67;26.33;;;;;2.34;81.47;100425.91;5017111;28;45356;-75
2021/12/12 08:06:11;;;;;;;;;19.33;19.33;;;;;2.39;81.37;100425.97;4998350;28;45538;-74
2021/12/12 08:08:38;;;;;;;;;20.33;18.00;;;;;2.45;80.34;100428.66;5016164;28;45464;-74
2021/12/12 08:11:05;;;;;;;;;17.67;17.67;;;;;2.50;80.21;100426.13;4998018;28;48192;-74
2021/12/12 08:13:31;;;;;;;;;22.00;18.67;;;;;2.55;80.02;100433.13;5016116;28;45443;-74
2021/12/12 08:16:00;;;;;;;;;30.00;23.33;;;;;2.60;79.75;100435.78;5015735;28;45551;-74
2021/12/12 08:18:27;;;;;;;;;20.67;19.33;;;;;2.66;79.80;100436.75;5016216;28;45451;-74
2021/12/12 08:20:54;;;;;;;;;20.33;18.00;;;;;2.72;79.17;100435.94;5016112;28;45599;-74
2021/12/12 08:23:22;;;;;;;;;21.33;18.67;;;;;2.78;79.26;100434.28;5016628;28;45482;-74
2021/12/12 08:25:49;;;;;;;;;22.00;18.67;;;;;2.84;78.78;100432.63;5016790;28;45467;-74
2021/12/12 08:28:16;;;;;;;;;22.00;19.33;;;;;2.91;78.54;100444.84;5016024;28;45508;-74
2021/12/12 08:30:42;;;;;;;;;25.67;18.67;;;;;2.96;78.22;100441.44;4998566;28;45492;-74
2021/12/12 08:33:09;;;;;;;;;24.00;21.33;;;;;3.02;78.15;100446.72;5016949;28;45475;-73
2021/12/12 08:35:35;;;;;;;;;21.00;20.67;;;;;3.06;77.88;100448.50;5016680;28;45350;-75
2021/12/12 08:38:04;;;;;;;;;21.00;19.33;;;;;3.11;77.33;100441.63;5016898;28;45267;-74
2021/12/12 08:40:34;;;;;;;;;19.33;18.33;;;;;3.15;77.00;100445.16;4998604;28;46681;-74
2021/12/12 08:43:00;;;;;;;;;19.67;18.00;;;;;3.18;77.11;100445.19;4998746;28;45478;-74
2021/12/12 08:45:32;;;;;;;;;15.67;15.33;;;;;3.23;76.94;100448.69;5016469;28;45424;-74
2021/12/12 08:48:00;;;;;;;;;13.67;13.67;;;;;3.27;76.80;100450.47;5016244;28;46082;-75
2021/12/12 08:50:29;;;;;;;;;26.00;19.00;;;;;3.31;76.39;100461.81;5003217;28;45527;-75
2021/12/12 08:52:56;;;;;;;;;20.33;19.67;;;;;3.29;76.11;100456.59;5016096;28;45308;-74
2021/12/12 08:55:31;;;;;;;;;24.33;18.00;;;;;3.31;76.31;100454.88;5016400;28;45379;-74
2021/12/12 08:58:03;;;;;;;;;16.67;15.00;;;;;3.35;75.77;100459.25;4998392;28;45465;-74
2021/12/12 09:00:33;;;;;;;;;19.33;15.67;;;;;3.38;75.78;100461.00;5016429;28;47123;-74
2021/12/12 09:02:59;;;;;;;;;18.67;16.33;;;;;3.41;75.03;100458.44;5015956;28;45433;-74
2021/12/12 09:05:32;;;;;;;;;17.33;16.00;;;;;3.44;75.12;100463.69;5016504;28;45275;-75
2021/12/12 09:08:06;;;;;;;;;20.33;17.33;;;;;3.48;75.35;100465.47;5015992;28;45215;-75
2021/12/12 09:10:40;;;;;;;;;16.67;14.33;;;;;3.54;75.60;100475.06;5015977;28;45393;-75
2021/12/12 09:13:19;;;;;;;;;21.00;19.33;;;;;3.57;75.41;100467.28;5002429;28;45369;-75
2021/12/12 09:15:48;;;;;;;;;24.67;22.00;;;;;3.58;75.21;100471.63;5015972;28;45540;-75
2021/12/12 09:18:28;;;;;;;;;20.00;16.00;;;;;3.60;75.17;100481.22;5015947;28;45280;-74
2021/12/12 09:21:10;;;;;;;;;17.67;17.67;;;;;3.65;75.15;100478.66;5015490;28;45994;-75
2021/12/12 09:24:01;;;;;;;;;26.00;22.00;;;;;3.70;74.69;100479.56;4997852;28;45486;-74
2021/12/12 09:26:27;;;;;;;;;23.00;21.00;;;;;3.74;74.60;100481.34;5005866;28;45484;-75
2021/12/12 09:29:24;;;;;;;;;22.00;18.33;;;;;3.80;74.58;100486.63;5015411;28;45414;-75
2021/12/12 09:32:01;;;;;;;;;19.67;16.33;;;;;3.84;74.84;100484.06;5015176;28;46522;-75
2021/12/12 09:34:41;;;;;;;;;21.67;19.00;;;;;3.88;74.54;100489.28;5015299;28;45217;-74
2021/12/12 09:37:22;;;;;;;;;22.67;18.33;;;;;3.90;74.34;100491.06;5015172;28;45346;-73
2021/12/12 09:40:12;;;;;;;;;24.00;21.67;;;;;3.95;74.16;100493.72;5014598;28;45315;-75
2021/12/12 09:43:11;;;;;;;;;21.33;19.33;;;;;4.02;74.07;100485.94;5004651;28;46645;-75
2021/12/12 09:45:37;;;;;;;;;28.67;23.00;;;;;4.06;74.10;100485.09;5002350;28;45344;-75
2021/12/12 09:51:37;;;;;;;;;26.33;19.33;;;;;4.17;73.90;100488.69;5015010;28;45439;-75
2021/12/12 09:54:28;;;;;;;;;21.00;18.33;;;;;4.21;73.49;100480.00;5015579;28;46440;-76
2021/12/12 09:57:02;;;;;;;;;15.00;13.67;;;;;4.27;73.27;100481.78;5015331;28;45404;-75
2021/12/12 09:59:52;;;;;;;;;18.00;17.33;;;;;4.34;72.71;100487.94;5014862;28;45503;-75
2021/12/12 10:02:29;;;;;;;;;15.00;13.00;;;;;4.39;72.39;100481.88;4996775;28;45381;-75
2021/12/12 10:05:25;;;;;;;;;25.33;17.33;;;;;4.44;72.25;100485.41;5014403;28;46355;-75
2021/12/12 10:07:50;;;;;;;;;21.67;17.00;;;;;4.48;71.88;100483.69;5015140;28;45544;-74
2021/12/12 10:10:31;;;;;;;;;18.00;17.00;;;;;4.54;71.75;100491.53;5015047;28;45432;-74
2021/12/12 10:13:13;;;;;;;;;18.33;15.67;;;;;4.59;71.48;100483.75;5014969;28;45340;-74
2021/12/12 10:15:44;;;;;;;;;19.00;16.33;;;;;4.62;71.14;100486.38;4996610;28;45477;-74
2021/12/12 10:18:20;;;;;;;;;17.00;17.00;;;;;4.67;71.52;100493.38;5014986;28;45425;-74
2021/12/12 10:21:08;;;;;;;;;17.00;12.33;;;;;4.70;71.51;100488.16;5014986;28;45434;-75
2021/12/12 10:23:34;;;;;;;;;15.67;13.00;;;;;4.72;70.73;100496.88;5013593;28;45483;-75
2021/12/12 10:26:05;;;;;;;;;13.00;13.00;;;;;4.77;70.79;100483.84;5014777;28;46355;-75
2021/12/12 10:28:41;;;;;;;;;17.67;17.00;;;;;4.80;70.62;100487.34;5014820;28;45276;-75
2021/12/12 10:31:12;;;;;;;;;12.00;12.00;;;;;4.83;70.45;100483.88;5011435;28;45513;-74
2021/12/12 10:33:50;;;;;;;;;16.33;13.00;;;;;4.85;69.58;100483.03;5014606;28;45374;-74
2021/12/12 10:36:29;;;;;;;;;17.33;15.67;;;;;4.89;69.13;100476.94;5014290;28;46363;-74
2021/12/12 10:39:01;;;;;;;;;23.33;16.00;;;;;4.91;68.86;100480.41;5014338;28;45502;-74
2021/12/12 10:41:34;;;;;;;;;9.67;9.67;;;;;4.93;68.42;100482.16;5014569;28;45426;-74
2021/12/12 10:44:14;;;;;;;;;16.67;15.00;;;;;4.97;68.47;100476.97;5014160;28;45437;-74
2021/12/12 10:46:58;;;;;;;;;17.00;14.33;;;;;5.04;68.36;100485.69;5013806;28;45375;-74
2021/12/12 10:49:55;;;;;;;;;13.67;13.00;;;;;5.06;68.44;100483.97;4996371;28;45386;-75
2021/12/12 10:52:31;;;;;;;;;11.33;11.33;;;;;5.09;67.69;100477.00;5005856;28;45403;-75
2021/12/12 10:55:08;;;;;;;;;13.00;13.00;;;;;5.12;67.83;100473.53;5018340;28;45426;-75
2021/12/12 10:57:37;;;;;;;;;14.00;10.33;;;;;5.15;68.11;100471.81;5017859;28;46163;-75
2021/12/12 11:00:18;;;;;;;;;19.67;19.33;;;;;5.20;68.28;100475.28;5017311;28;45464;-74
2021/12/12 11:03:09;;;;;;;;;18.67;14.33;;;;;5.23;68.04;100463.97;5017382;28;45512;-75
2021/12/12 11:05:40;;;;;;;;;19.00;15.67;;;;;5.24;68.28;100465.72;5017163;28;45216;-76
2021/12/12 11:08:22;;;;;;;;;11.67;11.33;;;;;5.24;67.00;100468.34;5017663;28;46272;-76
2021/12/12 11:10:49;;;;;;;;;10.67;9.67;;;;;5.26;67.25;100464.88;5017637;28;45506;-76
2021/12/12 11:13:25;;;;;;;;;11.67;11.00;;;;;5.29;67.55;100448.31;5017861;28;45422;-76
2021/12/12 11:16:05;;;;;;;;;15.00;14.67;;;;;5.35;67.43;100456.19;5016996;28;45376;-75
2021/12/12 11:18:39;;;;;;;;;17.00;12.00;;;;;5.40;67.37;100462.28;4999237;28;45609;-75
2021/12/12 11:21:13;;;;;;;;;12.00;12.00;;;;;5.44;66.83;100450.09;5017035;28;45389;-75
2021/12/12 11:23:57;;;;;;;;;10.67;9.67;;;;;5.49;66.92;100446.63;5017649;28;45390;-75
2021/12/12 11:26:31;;;;;;;;;9.00;8.67;;;;;5.54;66.79;100449.22;5017254;28;45383;-75
2021/12/12 11:29:03;;;;;;;;;12.33;11.67;;;;;5.58;67.08;100440.53;4998924;28;47926;-76
2021/12/12 11:31:37;;;;;;;;;15.33;14.00;;;;;5.60;66.80;100452.75;5017400;28;45161;-75
2021/12/12 11:34:07;;;;;;;;;16.33;15.33;;;;;5.64;67.09;100444.91;5017355;28;45303;-75
2021/12/12 11:36:49;;;;;;;;;23.67;21.33;;;;;5.67;66.67;100440.56;5016769;28;45394;-75
2021/12/12 11:39:29;;;;;;;;;11.67;11.33;;;;;5.71;66.41;100442.28;5020598;28;46916;-75
2021/12/12 11:42:03;;;;;;;;;12.00;11.33;;;;;5.71;66.22;100442.28;5017411;28;45444;-76
2021/12/12 11:44:39;;;;;;;;;18.67;14.00;;;;;5.69;65.37;100440.56;5017583;28;45386;-75
2021/12/12 11:47:29;;;;;;;;;20.67;18.67;;;;;5.66;65.77;100441.41;5015492;28;45396;-75
2021/12/12 11:50:05;;;;;;;;;19.00;18.33;;;;;5.68;66.16;100437.06;5016452;28;45366;-75
2021/12/12 11:52:38;;;;;;;;;16.00;13.33;;;;;5.69;65.88;100438.81;5017290;28;45390;-75
2021/12/12 11:55:19;;;;;;;;;17.00;13.00;;;;;5.68;65.93;100426.59;5016661;28;45487;-75
2021/12/12 11:57:55;;;;;;;;;9.00;9.00;;;;;5.67;65.77;100421.38;5017141;28;45342;-76
2021/12/12 12:00:28;;;;;;;;;24.00;20.33;;;;;5.66;65.86;100430.09;5017165;28;45349;-75